Time;durP1;ratioP1;P1;durP2;ratioP2;P2;SDS_P1;SDS_P2;PMS_P1;PMS_P2;Temp;Humidity;BMP_temperature;BMP_pressure;BME280_temperature;BME280_humidity;BME280_pressure;Samples;Min_cycle;Max_cycle;Signal;HPM_P1;HPM_P2
2023/07/09 00:02:22;;;;;;;8.13;6.50;;;23.60;99.90;;;;;;5074122;28;20037;-57
2023/07/09 00:04:48;;;;;;;8.23;6.07;;;23.50;99.90;;;;;;5074201;28;20485;-57
2023/07/09 00:07:18;;;;;;;9.50;6.32;;;23.50;99.90;;;;;;5073627;28;20064;-57
2023/07/09 00:09:44;;;;;;;9.52;6.63;;;23.40;99.90;;;;;;5073605;28;20043;-56
2023/07/09 00:12:16;;;;;;;10.27;6.75;;;23.40;99.90;;;;;;5073958;28;20036;-57
2023/07/09 00:14:42;;;;;;;15.32;8.35;;;23.40;99.90;;;;;;5073647;28;20052;-57
2023/07/09 00:17:21;;;;;;;10.48;7.47;;;23.40;99.90;;;;;;5073520;28;20041;-57
2023/07/09 00:19:46;;;;;;;10.52;6.43;;;23.30;99.90;;;;;;5073509;28;20039;-57
2023/07/09 00:22:18;;;;;;;9.65;6.30;;;23.30;99.90;;;;;;5071670;28;20037;-57
2023/07/09 00:24:47;;;;;;;13.23;7.13;;;23.20;99.90;;;;;;5062633;28;20471;-57
2023/07/09 00:27:14;;;;;;;8.25;6.55;;;23.20;99.90;;;;;;5073397;28;20047;-57
2023/07/09 00:29:41;;;;;;;8.25;6.53;;;23.30;99.90;;;;;;5072403;28;20032;-58
2023/07/09 00:32:20;;;;;;;8.32;6.32;;;23.20;99.90;;;;;;5073422;28;20181;-57
2023/07/09 00:34:50;;;;;;;9.82;6.25;;;23.20;99.90;;;;;;5073123;28;20543;-57
2023/07/09 00:37:18;;;;;;;8.80;6.30;;;23.10;99.90;;;;;;5073614;28;20394;-58
2023/07/09 00:39:44;;;;;;;11.37;6.13;;;23.10;99.90;;;;;;5073204;28;20036;-57
2023/07/09 00:42:17;;;;;;;17.77;7.53;;;23.10;99.90;;;;;;5073195;28;20059;-57
2023/07/09 00:44:47;;;;;;;11.98;6.80;;;23.10;99.90;;;;;;5073062;28;20036;-57
2023/07/09 00:47:23;;;;;;;9.23;6.38;;;23.00;99.90;;;;;;5073118;28;20507;-57
2023/07/09 00:49:50;;;;;;;10.73;6.35;;;23.00;99.90;;;;;;5072021;28;20494;-57
2023/07/09 00:52:36;;;;;;;9.68;6.38;;;23.00;99.90;;;;;;5073116;28;20071;-57
2023/07/09 00:55:11;;;;;;;10.23;6.03;;;23.00;99.90;;;;;;5073137;28;20112;-57
2023/07/09 00:57:41;;;;;;;8.13;6.65;;;23.00;99.90;;;;;;5071768;28;20045;-57
2023/07/09 01:00:13;;;;;;;9.35;6.00;;;23.00;99.90;;;;;;5072801;28;20049;-57
2023/07/09 01:02:44;;;;;;;7.43;6.18;;;23.00;99.90;;;;;;5072910;28;20057;-57
2023/07/09 01:05:11;;;;;;;9.60;6.30;;;23.00;99.90;;;;;;5072677;28;20870;-57
2023/07/09 01:07:37;;;;;;;7.87;6.23;;;23.00;99.90;;;;;;5072994;28;20090;-57
2023/07/09 01:10:03;;;;;;;7.38;6.00;;;22.90;99.90;;;;;;5072907;28;20033;-57
2023/07/09 01:12:30;;;;;;;10.27;6.25;;;22.90;99.90;;;;;;5072624;28;20368;-57
2023/07/09 01:14:58;;;;;;;10.75;6.57;;;22.80;99.90;;;;;;5072465;28;20048;-57
2023/07/09 01:17:27;;;;;;;8.75;6.72;;;22.80;99.90;;;;;;5072796;28;20375;-57
2023/07/09 01:19:54;;;;;;;11.40;6.75;;;22.80;99.90;;;;;;5072854;28;20049;-57
2023/07/09 01:22:22;;;;;;;11.23;6.40;;;22.80;99.90;;;;;;5068419;28;20032;-57
2023/07/09 01:24:47;;;;;;;8.85;6.07;;;22.80;99.90;;;;;;5061912;28;20573;-57
2023/07/09 01:27:13;;;;;;;7.43;6.18;;;22.70;99.90;;;;;;5072805;28;20151;-57
2023/07/09 01:29:41;;;;;;;10.02;5.97;;;22.70;99.90;;;;;;5072508;28;20170;-57
2023/07/09 01:32:07;;;;;;;10.32;6.70;;;22.70;99.90;;;;;;5072657;28;20103;-57
2023/07/09 01:34:33;;;;;;;10.13;6.93;;;22.70;99.90;;;;;;5072383;28;20502;-57
2023/07/09 01:36:59;;;;;;;9.20;5.80;;;22.70;99.90;;;;;;5072209;28;20044;-57
2023/07/09 01:39:28;;;;;;;8.25;6.97;;;22.70;99.90;;;;;;5072165;28;20113;-57
2023/07/09 01:41:54;;;;;;;11.57;6.00;;;22.70;99.90;;;;;;5059014;28;20107;-57
2023/07/09 01:44:20;;;;;;;9.13;7.10;;;22.60;99.90;;;;;;5070839;28;20037;-57
2023/07/09 01:46:46;;;;;;;10.65;6.28;;;22.60;99.90;;;;;;5072451;28;20121;-58
2023/07/09 01:49:12;;;;;;;9.80;6.57;;;22.60;99.90;;;;;;5071760;28;20121;-57
2023/07/09 01:51:39;;;;;;;9.50;6.80;;;22.60;99.90;;;;;;5071949;28;20044;-57
2023/07/09 01:54:05;;;;;;;14.95;6.28;;;22.60;99.90;;;;;;5070649;28;20051;-58
2023/07/09 01:56:30;;;;;;;9.38;6.40;;;22.50;99.90;;;;;;5071794;28;20043;-57
2023/07/09 01:59:01;;;;;;;10.75;6.40;;;22.60;99.90;;;;;;5072237;28;20119;-58
2023/07/09 02:01:33;;;;;;;11.63;6.90;;;22.50;99.90;;;;;;5071864;28;20447;-57
2023/07/09 02:03:59;;;;;;;12.23;6.78;;;22.50;99.90;;;;;;5072422;28;20106;-57
2023/07/09 02:06:24;;;;;;;9.18;6.63;;;22.40;99.90;;;;;;5071875;28;20036;-57
2023/07/09 02:08:50;;;;;;;10.52;6.53;;;22.50;99.90;;;;;;5071759;28;20054;-57
2023/07/09 02:11:16;;;;;;;9.63;6.57;;;22.40;99.90;;;;;;5072031;28;20044;-57
2023/07/09 02:13:42;;;;;;;10.95;6.43;;;22.40;99.90;;;;;;5072096;28;20466;-57
2023/07/09 02:16:07;;;;;;;14.13;7.00;;;22.40;99.90;;;;;;5071960;28;20079;-57
2023/07/09 02:18:34;;;;;;;7.95;6.13;;;22.30;99.90;;;;;;5071827;28;20124;-57
2023/07/09 02:21:00;;;;;;;10.13;6.63;;;22.30;99.90;;;;;;5071849;28;20029;-57
2023/07/09 02:23:27;;;;;;;11.27;6.68;;;22.30;99.90;;;;;;5059323;28;20037;-57
2023/07/09 02:25:53;;;;;;;11.27;7.13;;;22.20;99.90;;;;;;5070345;28;20054;-57
2023/07/09 02:28:18;;;;;;;10.57;7.03;;;22.20;99.90;;;;;;5068291;28;20461;-57
2023/07/09 02:30:44;;;;;;;32.45;7.72;;;22.20;99.90;;;;;;5066196;28;20544;-57
2023/07/09 02:33:10;;;;;;;7.55;6.00;;;22.20;99.90;;;;;;5072560;28;20041;-57
2023/07/09 02:35:35;;;;;;;10.70;7.07;;;22.10;99.90;;;;;;5067007;28;20106;-57
2023/07/09 02:38:02;;;;;;;9.45;7.20;;;22.10;99.90;;;;;;5062475;28;20491;-57
2023/07/09 02:40:28;;;;;;;10.57;6.80;;;22.10;99.90;;;;;;5069618;28;20040;-57
2023/07/09 02:42:54;;;;;;;9.20;6.70;;;22.10;99.90;;;;;;5075427;28;20051;-57
2023/07/09 02:45:20;;;;;;;12.80;6.93;;;22.10;99.90;;;;;;5075742;28;20044;-58
2023/07/09 02:47:45;;;;;;;10.05;6.40;;;22.10;99.90;;;;;;5061336;28;20395;-57
2023/07/09 02:50:11;;;;;;;8.95;6.75;;;22.10;99.90;;;;;;5075620;28;20045;-57
2023/07/09 02:52:37;;;;;;;11.40;7.65;;;22.00;99.90;;;;;;5075947;28;20028;-57
2023/07/09 02:55:03;;;;;;;11.43;6.97;;;22.00;99.90;;;;;;5075334;28;20060;-57
2023/07/09 02:57:28;;;;;;;9.80;6.65;;;22.00;99.90;;;;;;5075603;28;20112;-58
2023/07/09 02:59:54;;;;;;;10.07;7.18;;;22.00;99.90;;;;;;5075303;28;20037;-58
2023/07/09 03:02:19;;;;;;;11.43;6.63;;;21.90;99.90;;;;;;5075197;28;20380;-58
2023/07/09 03:04:45;;;;;;;8.52;6.43;;;21.90;99.90;;;;;;5060834;28;20043;-58
2023/07/09 03:07:11;;;;;;;9.98;6.30;;;21.90;99.90;;;;;;5075085;28;20040;-57
2023/07/09 03:09:36;;;;;;;11.57;6.70;;;21.90;99.90;;;;;;5074638;28;20436;-58
2023/07/09 03:12:02;;;;;;;10.60;7.13;;;21.80;99.90;;;;;;5075398;28;20040;-57
2023/07/09 03:14:27;;;;;;;11.80;6.97;;;21.80;99.90;;;;;;5075091;28;20131;-57
2023/07/09 03:16:54;;;;;;;11.60;7.25;;;21.80;99.90;;;;;;5074967;28;20386;-57
2023/07/09 03:19:20;;;;;;;11.13;7.20;;;21.80;99.90;;;;;;5074967;28;20525;-57
2023/07/09 03:21:45;;;;;;;9.27;6.72;;;21.70;99.90;;;;;;5074764;28;20483;-57
2023/07/09 03:24:18;;;;;;;10.23;7.35;;;21.70;99.90;;;;;;5074718;28;20086;-57
2023/07/09 03:26:44;;;;;;;13.35;6.97;;;21.60;99.90;;;;;;5074610;28;20040;-57
2023/07/09 03:29:10;;;;;;;10.35;7.18;;;21.60;99.90;;;;;;5074922;28;20041;-57
2023/07/09 03:31:36;;;;;;;10.40;8.13;;;21.60;99.90;;;;;;5074437;28;20052;-57
2023/07/09 03:34:02;;;;;;;10.85;7.68;;;21.60;99.90;;;;;;5074520;28;20036;-57
2023/07/09 03:36:27;;;;;;;11.30;8.05;;;21.60;99.90;;;;;;5074929;28;20043;-57
2023/07/09 03:38:53;;;;;;;9.55;6.50;;;21.50;99.90;;;;;;5059916;28;20072;-57
2023/07/09 03:41:18;;;;;;;8.50;6.53;;;21.50;99.90;;;;;;5074522;28;20086;-58
2023/07/09 03:43:44;;;;;;;9.95;7.38;;;21.60;99.90;;;;;;5074028;28;20087;-58
2023/07/09 03:46:10;;;;;;;9.32;7.10;;;21.50;99.90;;;;;;5073723;28;20045;-57
2023/07/09 03:48:35;;;;;;;8.57;6.55;;;21.50;99.90;;;;;;5074390;28;20083;-57
2023/07/09 03:51:01;;;;;;;10.25;6.72;;;21.50;99.90;;;;;;5074173;28;20376;-56
2023/07/09 03:53:27;;;;;;;10.10;6.97;;;21.50;99.90;;;;;;5073881;28;20037;-57
2023/07/09 03:55:54;;;;;;;8.20;7.25;;;21.50;99.90;;;;;;5074122;28;20028;-57
2023/07/09 03:58:20;;;;;;;8.03;7.17;;;21.50;99.90;;;;;;5074165;28;20043;-57
2023/07/09 04:00:46;;;;;;;11.10;7.38;;;21.50;99.90;;;;;;5074076;28;20033;-57
2023/07/09 04:03:12;;;;;;;8.98;6.65;;;21.50;99.90;;;;;;5074008;28;20425;-57
2023/07/09 04:05:37;;;;;;;9.68;6.30;;;21.50;99.90;;;;;;5074046;28;20040;-57
2023/07/09 04:08:04;;;;;;;8.77;6.70;;;21.50;99.90;;;;;;5073666;28;20116;-58
2023/07/09 04:10:30;;;;;;;11.27;7.07;;;21.50;99.90;;;;;;5073954;28;20036;-57
2023/07/09 04:12:55;;;;;;;8.35;6.68;;;21.50;99.90;;;;;;5073966;28;20453;-57
2023/07/09 04:15:21;;;;;;;8.25;6.57;;;21.50;99.90;;;;;;5073894;28;20116;-58
2023/07/09 04:17:47;;;;;;;8.13;6.47;;;21.50;99.90;;;;;;5073497;28;20040;-57
2023/07/09 04:20:13;;;;;;;9.93;7.28;;;21.50;99.90;;;;;;5073491;28;20393;-57
2023/07/09 04:22:40;;;;;;;12.02;7.00;;;21.60;99.90;;;;;;5073748;28;20036;-58
2023/07/09 04:25:09;;;;;;;11.52;7.45;;;21.60;99.90;;;;;;5073520;28;20044;-58
2023/07/09 04:27:35;;;;;;;10.10;6.63;;;21.60;99.90;;;;;;5073415;28;20367;-57
2023/07/09 04:30:02;;;;;;;10.50;7.15;;;21.60;99.90;;;;;;5073517;28;20040;-57
2023/07/09 04:32:27;;;;;;;9.65;6.40;;;21.70;99.90;;;;;;5073324;28;20032;-57
2023/07/09 04:34:53;;;;;;;12.30;7.25;;;21.70;99.90;;;;;;5073166;28;20536;-57
2023/07/09 04:37:19;;;;;;;12.77;6.72;;;21.70;99.90;;;;;;5069308;28;20029;-58
2023/07/09 04:39:45;;;;;;;9.13;6.57;;;21.70;99.90;;;;;;5063474;28;20517;-58
2023/07/09 04:42:13;;;;;;;9.98;6.85;;;21.80;99.90;;;;;;5073077;28;20136;-58
2023/07/09 04:44:38;;;;;;;10.40;7.43;;;21.80;99.90;;;;;;5055048;28;20444;-57
2023/07/09 04:47:05;;;;;;;7.78;6.32;;;21.80;99.90;;;;;;5073289;28;20040;-58
2023/07/09 04:49:31;;;;;;;10.02;6.45;;;21.80;99.90;;;;;;5073346;28;20139;-57
2023/07/09 04:51:58;;;;;;;10.98;7.07;;;21.90;99.90;;;;;;5072773;28;20119;-58
2023/07/09 04:54:24;;;;;;;10.75;6.65;;;21.90;99.90;;;;;;5072997;28;20526;-58
2023/07/09 04:56:49;;;;;;;9.45;6.50;;;22.00;99.90;;;;;;5071717;28;20116;-57
2023/07/09 04:59:15;;;;;;;10.30;6.80;;;22.00;99.90;;;;;;5072734;28;20048;-57
2023/07/09 05:01:41;;;;;;;8.18;6.22;;;22.10;99.90;;;;;;5072877;28;20032;-57
2023/07/09 05:04:06;;;;;;;14.27;7.03;;;22.10;99.90;;;;;;5072549;28;20437;-57
2023/07/09 05:06:33;;;;;;;11.68;6.82;;;22.10;99.90;;;;;;5072876;28;20037;-57
2023/07/09 05:08:58;;;;;;;7.25;6.55;;;22.20;99.90;;;;;;5072702;28;20040;-58
2023/07/09 05:11:24;;;;;;;8.98;7.10;;;22.30;99.90;;;;;;5072788;28;20158;-58
2023/07/09 05:13:50;;;;;;;11.02;6.95;;;22.30;99.90;;;;;;5072583;28;20044;-57
2023/07/09 05:16:16;;;;;;;7.30;6.25;;;22.30;99.90;;;;;;5072582;28;20045;-57
2023/07/09 05:18:42;;;;;;;10.93;6.43;;;22.40;99.90;;;;;;5072299;28;20068;-57
2023/07/09 05:21:08;;;;;;;8.57;6.57;;;22.50;99.90;;;;;;5072462;28;20483;-58
2023/07/09 05:23:34;;;;;;;13.70;6.65;;;22.50;99.90;;;;;;5072212;28;20506;-57
2023/07/09 05:26:01;;;;;;;9.88;6.50;;;22.50;99.90;;;;;;5072033;28;20037;-58
2023/07/09 05:28:27;;;;;;;7.22;6.53;;;22.70;99.90;;;;;;5072294;28;20119;-57
2023/07/09 05:30:53;;;;;;;8.43;6.68;;;22.80;99.90;;;;;;5072121;28;20538;-58
2023/07/09 05:33:19;;;;;;;7.47;6.32;;;22.90;99.90;;;;;;5072175;28;20128;-57
2023/07/09 05:35:45;;;;;;;9.13;7.55;;;23.00;99.90;;;;;;5072469;28;20111;-58
2023/07/09 05:38:12;;;;;;;9.65;5.95;;;23.10;99.90;;;;;;5060766;28;20495;-58
2023/07/09 05:40:38;;;;;;;8.27;6.78;;;23.10;99.90;;;;;;5068398;28;20421;-58
2023/07/09 05:43:04;;;;;;;10.20;6.78;;;23.10;99.90;;;;;;5072309;28;20110;-58
2023/07/09 05:45:31;;;;;;;8.45;6.53;;;23.20;99.90;;;;;;5072074;28;20041;-59
2023/07/09 05:47:58;;;;;;;8.57;6.03;;;23.20;99.90;;;;;;5072111;28;20036;-57
2023/07/09 05:50:24;;;;;;;11.23;6.47;;;23.40;99.90;;;;;;5072300;28;20075;-57
2023/07/09 05:52:49;;;;;;;10.27;6.30;;;23.40;99.90;;;;;;5072096;28;20499;-58
2023/07/09 05:55:15;;;;;;;7.28;6.00;;;23.60;99.90;;;;;;5072260;28;20037;-58
2023/07/09 05:57:41;;;;;;;7.60;6.80;;;23.60;99.90;;;;;;5071771;28;20043;-58
2023/07/09 06:00:08;;;;;;;10.60;6.07;;;23.60;99.90;;;;;;5071823;28;20126;-58
2023/07/09 06:02:34;;;;;;;11.55;7.57;;;23.60;99.90;;;;;;5071805;28;20037;-58
2023/07/09 06:05:00;;;;;;;8.45;6.72;;;23.60;99.90;;;;;;5071944;28;20359;-58
2023/07/09 06:07:25;;;;;;;8.77;6.95;;;23.60;99.90;;;;;;5071643;28;20482;-58
2023/07/09 06:09:52;;;;;;;8.68;6.55;;;23.60;99.90;;;;;;5071731;28;20037;-58
2023/07/09 06:12:18;;;;;;;18.00;7.20;;;23.60;99.90;;;;;;5071717;28;20052;-58
2023/07/09 06:14:44;;;;;;;8.88;6.50;;;23.60;99.90;;;;;;5071627;28;20032;-58
2023/07/09 06:17:09;;;;;;;11.30;7.45;;;23.60;99.90;;;;;;5071598;28;20517;-57
2023/07/09 06:19:35;;;;;;;11.80;6.78;;;23.50;99.90;;;;;;5071558;28;20040;-58
2023/07/09 06:22:00;;;;;;;8.75;6.72;;;23.70;99.90;;;;;;5071361;28;20391;-58
2023/07/09 06:24:26;;;;;;;10.57;6.90;;;23.70;99.90;;;;;;5071650;28;20040;-58
2023/07/09 06:26:52;;;;;;;17.25;7.35;;;23.90;99.90;;;;;;5071792;28;20040;-58
2023/07/09 06:29:17;;;;;;;9.85;6.55;;;24.10;99.90;;;;;;5070461;28;20036;-58
2023/07/09 06:31:43;;;;;;;10.23;6.90;;;24.20;99.90;;;;;;5071594;28;20045;-58
2023/07/09 06:34:09;;;;;;;10.52;7.07;;;24.40;99.90;;;;;;5071903;28;20046;-58
2023/07/09 06:36:35;;;;;;;11.23;7.03;;;24.70;99.90;;;;;;5071547;28;20138;-58
2023/07/09 06:39:02;;;;;;;9.07;7.25;;;24.90;99.90;;;;;;5057350;28;20094;-58
2023/07/09 06:41:27;;;;;;;10.07;6.63;;;25.10;99.90;;;;;;5071472;28;20051;-58
2023/07/09 06:43:53;;;;;;;10.10;7.35;;;25.20;99.90;;;;;;5071249;28;20048;-58
2023/07/09 06:46:20;;;;;;;9.73;7.13;;;25.40;99.90;;;;;;5071443;28;20119;-57
2023/07/09 06:48:46;;;;;;;10.82;6.88;;;25.60;99.90;;;;;;5071247;28;20128;-58
2023/07/09 06:51:12;;;;;;;12.07;6.32;;;25.70;99.90;;;;;;5071287;28;20125;-58
2023/07/09 06:53:37;;;;;;;9.07;7.72;;;25.80;99.90;;;;;;5071414;28;20111;-58
2023/07/09 06:56:03;;;;;;;12.70;7.45;;;25.90;99.90;;;;;;5071395;28;20376;-57
2023/07/09 06:58:31;;;;;;;9.48;7.40;;;26.10;99.90;;;;;;5071279;28;20044;-58
2023/07/09 07:00:57;;;;;;;10.77;7.35;;;26.10;99.90;;;;;;5071031;28;20108;-58
2023/07/09 07:03:23;;;;;;;11.32;7.85;;;26.20;99.90;;;;;;5071103;28;20036;-58
2023/07/09 07:05:53;;;;;;;12.23;7.18;;;26.30;99.90;;;;;;5071358;28;20064;-58
2023/07/09 07:08:22;;;;;;;7.57;6.70;;;26.60;99.90;;;;;;5071446;28;20115;-58
2023/07/09 07:10:49;;;;;;;9.00;7.15;;;26.80;99.90;;;;;;5071058;28;20398;-58
2023/07/09 07:13:15;;;;;;;8.18;6.45;;;27.00;99.90;;;;;;5071117;28;20483;-58
2023/07/09 07:15:41;;;;;;;13.18;8.00;;;27.20;99.90;;;;;;5071447;28;20119;-58
2023/07/09 07:18:08;;;;;;;7.97;6.85;;;27.60;99.90;;;;;;5071058;28;20107;-58
2023/07/09 07:20:34;;;;;;;12.48;7.53;;;27.80;99.90;;;;;;5072639;28;20162;-58
2023/07/09 07:23:00;;;;;;;16.98;7.22;;;28.10;99.90;;;;;;5074753;28;20036;-59
2023/07/09 07:25:25;;;;;;;10.95;6.90;;;28.30;99.90;;;;;;5074622;28;20040;-58
2023/07/09 07:27:53;;;;;;;9.23;7.00;;;28.60;99.90;;;;;;5074630;28;20399;-58
2023/07/09 07:30:19;;;;;;;9.45;7.07;;;29.00;99.90;;;;;;5074677;28;20089;-58
2023/07/09 07:32:48;;;;;;;12.48;7.38;;;29.00;99.90;;;;;;5074652;28;20086;-58
2023/07/09 07:35:14;;;;;;;10.23;6.90;;;29.10;99.90;;;;;;5065876;28;20106;-68
2023/07/09 07:37:41;;;;;;;9.43;6.80;;;29.10;99.90;;;;;;5064988;28;20033;-68
2023/07/09 07:40:09;;;;;;;10.38;6.93;;;28.80;99.90;;;;;;5056959;28;20438;-67
2023/07/09 07:42:35;;;;;;;10.38;6.78;;;28.70;99.90;;;;;;5055823;28;20056;-67
2023/07/09 07:45:01;;;;;;;12.65;6.43;;;28.60;99.90;;;;;;5057895;28;20045;-67
2023/07/09 07:47:27;;;;;;;8.43;7.53;;;28.50;99.90;;;;;;5060938;28;20367;-67
2023/07/09 07:49:53;;;;;;;8.40;6.80;;;28.20;99.90;;;;;;5054310;28;20387;-67
2023/07/09 07:52:19;;;;;;;7.50;6.70;;;28.20;99.90;;;;;;5053732;28;20052;-67
2023/07/09 07:54:45;;;;;;;12.25;7.50;;;28.50;99.90;;;;;;5053764;28;20041;-68
2023/07/09 07:57:11;;;;;;;13.25;7.38;;;29.10;99.90;;;;;;5053739;28;20123;-67
2023/07/09 07:59:37;;;;;;;8.13;6.95;;;29.50;99.90;;;;;;5068440;28;20079;-67
2023/07/09 08:02:05;;;;;;;9.25;6.70;;;29.60;99.90;;;;;;5053821;28;20395;-68
2023/07/09 08:04:31;;;;;;;12.85;7.50;;;29.80;99.90;;;;;;5053693;28;20082;-68
2023/07/09 08:06:58;;;;;;;12.45;7.63;;;30.10;99.90;;;;;;5062043;28;20036;-68
2023/07/09 08:09:24;;;;;;;10.75;6.57;;;30.30;99.90;;;;;;5073608;28;20119;-68
2023/07/09 08:11:50;;;;;;;11.25;6.82;;;30.60;99.90;;;;;;5072680;28;20094;-68
2023/07/09 08:14:16;;;;;;;16.63;7.93;;;30.70;99.90;;;;;;5068330;28;20037;-68
2023/07/09 08:16:42;;;;;;;10.82;6.30;;;30.70;99.90;;;;;;5055607;28;20040;-68
2023/07/09 08:19:08;;;;;;;12.40;7.28;;;30.80;99.90;;;;;;5052492;28;20045;-68
2023/07/09 08:21:33;;;;;;;8.02;7.22;;;30.80;99.90;;;;;;5053362;28;20041;-68
2023/07/09 08:23:59;;;;;;;8.27;6.60;;;30.70;99.90;;;;;;5053207;28;20040;-69
2023/07/09 08:26:26;;;;;;;8.73;6.88;;;30.70;99.90;;;;;;5056372;28;20041;-68
2023/07/09 08:28:52;;;;;;;10.73;6.75;;;30.90;99.90;;;;;;5066174;28;20052;-68
2023/07/09 08:31:17;;;;;;;12.80;6.68;;;30.90;99.90;;;;;;5055792;28;20441;-59
2023/07/09 08:33:43;;;;;;;10.80;7.03;;;30.90;99.90;;;;;;5073335;28;20116;-58
2023/07/09 08:36:09;;;;;;;9.02;7.28;;;31.10;99.90;;;;;;5073200;28;20055;-58
2023/07/09 08:38:34;;;;;;;14.63;6.95;;;31.20;99.90;;;;;;5059155;28;20037;-58
2023/07/09 08:41:22;;;;;;;8.85;6.95;;;31.40;99.90;;;;;;5073095;28;20372;-59
2023/07/09 08:44:23;;;;;;;12.05;7.03;;;31.50;99.90;;;;;;5058202;28;20044;-59
2023/07/09 08:47:07;;;;;;;10.98;7.55;;;31.60;99.90;;;;;;5073201;28;20044;-59
2023/07/09 08:49:48;;;;;;;9.30;6.85;;;31.80;99.90;;;;;;5073208;28;20384;-59
2023/07/09 08:52:24;;;;;;;8.30;7.25;;;32.10;99.90;;;;;;5072755;28;20045;-59
2023/07/09 08:54:51;;;;;;;11.02;7.68;;;32.20;99.90;;;;;;5071836;28;20048;-59
2023/07/09 08:57:23;;;;;;;12.68;8.43;;;32.30;99.90;;;;;;5071386;28;20055;-58
2023/07/09 08:59:53;;;;;;;9.70;8.15;;;32.50;99.90;;;;;;5072662;28;20070;-58
2023/07/09 09:02:35;;;;;;;13.65;8.70;;;32.60;99.90;;;;;;5071324;28;20032;-59
2023/07/09 09:05:04;;;;;;;16.20;9.32;;;32.70;99.90;;;;;;5073032;28;20090;-59
2023/07/09 09:07:42;;;;;;;12.85;8.95;;;32.80;99.90;;;;;;5072431;28;20039;-59
2023/07/09 09:10:17;;;;;;;10.10;7.97;;;32.80;99.70;;;;;;5072734;28;20040;-58
2023/07/09 09:12:57;;;;;;;12.85;8.45;;;32.80;99.90;;;;;;5072746;28;20125;-58
2023/07/09 09:15:24;;;;;;;13.32;9.10;;;32.80;99.90;;;;;;5072420;28;20040;-58
2023/07/09 09:17:57;;;;;;;10.47;9.03;;;32.60;99.90;;;;;;5072602;28;20031;-59
2023/07/09 09:20:23;;;;;;;12.73;9.82;;;32.60;99.90;;;;;;5072420;28;20044;-59
2023/07/09 09:22:55;;;;;;;14.93;10.63;;;32.00;99.90;;;;;;5071207;28;20068;-59
2023/07/09 09:25:31;;;;;;;14.75;9.93;;;31.70;99.90;;;;;;5072534;28;20041;-59
2023/07/09 09:28:00;;;;;;;8.50;7.63;;;31.90;99.90;;;;;;5072403;28;20033;-58
2023/07/09 09:30:27;;;;;;;14.68;9.15;;;31.90;99.90;;;;;;5072132;28;20056;-58
2023/07/09 09:32:57;;;;;;;10.05;7.30;;;31.80;99.90;;;;;;5072149;28;20036;-58
2023/07/09 09:35:30;;;;;;;11.45;9.45;;;32.00;99.90;;;;;;5065992;28;20037;-58
2023/07/09 09:37:57;;;;;;;13.85;7.95;;;32.00;99.90;;;;;;5052507;28;20048;-59
2023/07/09 09:40:25;;;;;;;11.02;8.63;;;32.10;99.90;;;;;;5067482;28;20055;-59
2023/07/09 09:42:53;;;;;;;15.23;11.75;;;31.90;99.90;;;;;;5071406;28;20048;-59
2023/07/09 09:45:25;;;;;;;14.48;10.65;;;31.40;99.90;;;;;;5071897;28;20112;-59
2023/07/09 09:47:51;;;;;;;12.98;9.63;;;31.10;99.90;;;;;;5072083;28;20044;-59
2023/07/09 09:50:20;;;;;;;15.80;8.82;;;31.20;99.90;;;;;;5071949;28;20392;-58
2023/07/09 09:52:47;;;;;;;11.98;8.50;;;31.50;99.90;;;;;;5071834;28;20119;-59
2023/07/09 09:55:20;;;;;;;11.98;10.65;;;32.10;99.90;;;;;;5071949;28;20359;-58
2023/07/09 09:57:53;;;;;;;13.77;8.95;;;31.80;99.90;;;;;;5070343;28;20051;-59
2023/07/09 10:00:22;;;;;;;13.45;9.98;;;32.30;99.90;;;;;;5071914;28;20075;-58
2023/07/09 10:02:48;;;;;;;11.90;8.10;;;32.70;99.90;;;;;;5070499;28;20036;-59
2023/07/09 10:05:15;;;;;;;9.23;8.20;;;32.90;99.90;;;;;;5071434;28;20044;-59
2023/07/09 10:08:12;;;;;;;13.80;9.10;;;33.20;99.90;;;;;;5071565;28;20076;-59
2023/07/09 10:10:41;;;;;;;15.43;8.43;;;33.40;99.90;;;;;;5061223;28;20451;-60
2023/07/09 10:13:45;;;;;;;10.55;8.35;;;33.70;99.90;;;;;;5071597;28;20071;-58
2023/07/09 10:16:21;;;;;;;9.80;8.05;;;34.10;99.90;;;;;;5029581;28;20072;-59
2023/07/09 10:18:52;;;;;;;11.73;8.27;;;34.10;99.90;;;;;;5029374;28;20045;-59
2023/07/09 10:21:34;;;;;;;12.02;8.65;;;34.30;99.50;;;;;;5029644;28;20519;-59
2023/07/09 10:24:18;;;;;;;9.02;7.25;;;34.50;99.60;;;;;;5029298;28;20041;-59
2023/07/09 10:26:53;;;;;;;12.45;7.60;;;34.30;99.90;;;;;;5029280;28;20050;-59
2023/07/09 10:29:39;;;;;;;8.05;6.70;;;34.40;99.40;;;;;;5029321;28;20514;-59
2023/07/09 10:32:19;;;;;;;13.15;8.57;;;34.20;99.60;;;;;;5029271;28;20133;-59
2023/07/09 10:35:07;;;;;;;13.05;8.43;;;34.30;99.40;;;;;;5029346;28;20049;-59
2023/07/09 10:37:38;;;;;;;9.68;8.68;;;34.60;99.90;;;;;;5029139;28;20076;-59
2023/07/09 10:40:08;;;;;;;9.02;7.85;;;34.50;99.90;;;;;;5029141;28;20052;-59
2023/07/09 10:42:44;;;;;;;12.02;7.68;;;34.60;99.40;;;;;;5028920;28;20046;-60
2023/07/09 10:45:16;;;;;;;9.10;7.72;;;34.50;99.30;;;;;;5029068;28;20146;-59
2023/07/09 10:47:49;;;;;;;12.18;8.18;;;34.60;99.80;;;;;;5054652;28;20395;-59
2023/07/09 10:50:22;;;;;;;9.15;8.25;;;34.90;99.90;;;;;;5070062;28;20051;-59
2023/07/09 10:52:54;;;;;;;8.85;7.47;;;34.70;99.60;;;;;;5070107;28;20083;-59
2023/07/09 10:55:37;;;;;;;12.55;8.45;;;34.90;99.50;;;;;;5074006;28;20169;-59
2023/07/09 10:58:14;;;;;;;14.00;7.63;;;35.20;99.80;;;;;;5074980;28;20072;-59
2023/07/09 11:00:40;;;;;;;10.60;8.60;;;35.50;99.20;;;;;;5075216;28;20036;-59
2023/07/09 11:03:19;;;;;;;10.38;8.48;;;35.30;98.80;;;;;;5074877;28;20429;-59
2023/07/09 11:05:46;;;;;;;11.57;7.88;;;35.20;98.80;;;;;;5075024;28;20394;-60
2023/07/09 11:08:34;;;;;;;11.45;8.38;;;35.70;98.00;;;;;;5074862;28;20040;-59
2023/07/09 11:11:04;;;;;;;9.82;7.82;;;36.00;96.50;;;;;;5074440;28;20064;-59
2023/07/09 11:13:42;;;;;;;10.27;7.47;;;36.20;98.10;;;;;;5067433;28;20085;-59
2023/07/09 11:16:17;;;;;;;13.32;8.48;;;36.60;97.50;;;;;;5074535;28;20566;-59
2023/07/09 11:18:54;;;;;;;9.85;7.90;;;36.80;97.80;;;;;;5074703;28;20696;-59
2023/07/09 11:21:20;;;;;;;11.55;7.25;;;36.80;97.50;;;;;;5063396;28;20044;-60
2023/07/09 11:23:50;;;;;;;9.80;7.50;;;36.90;97.80;;;;;;5067455;28;20029;-60
2023/07/09 11:26:33;;;;;;;7.20;6.50;;;37.10;96.60;;;;;;5058500;28;20049;-59
2023/07/09 11:29:02;;;;;;;9.98;7.32;;;37.20;96.90;;;;;;5067512;28;20440;-60
2023/07/09 11:31:39;;;;;;;9.57;6.80;;;37.30;96.80;;;;;;5074445;28;20055;-60
2023/07/09 11:34:12;;;;;;;10.32;6.93;;;36.90;96.90;;;;;;5074673;28;20029;-60
2023/07/09 11:37:00;;;;;;;8.15;7.15;;;37.10;96.50;;;;;;5074259;28;20043;-60
2023/07/09 11:39:39;;;;;;;8.55;7.38;;;37.20;96.90;;;;;;5073371;28;20049;-60
2023/07/09 11:42:29;;;;;;;7.60;6.68;;;37.00;97.60;;;;;;5074001;28;20047;-60
2023/07/09 11:45:09;;;;;;;9.63;6.38;;;37.00;97.00;;;;;;5073006;28;20048;-60
2023/07/09 11:47:41;;;;;;;14.30;7.35;;;36.80;96.80;;;;;;5074359;28;20428;-60
2023/07/09 11:50:29;;;;;;;9.23;6.57;;;36.90;97.60;;;;;;5074349;28;20040;-59
2023/07/09 11:53:12;;;;;;;8.50;6.57;;;36.90;97.30;;;;;;5061550;28;20047;-60
2023/07/09 11:55:45;;;;;;;7.75;6.10;;;36.90;96.60;;;;;;5074014;28;20039;-60
2023/07/09 11:58:17;;;;;;;7.68;6.38;;;37.10;96.20;;;;;;5074075;28;20071;-60
2023/07/09 12:00:45;;;;;;;9.32;6.25;;;37.10;97.10;;;;;;5074191;28;20778;-61
2023/07/09 12:03:17;;;;;;;10.40;6.80;;;37.00;96.90;;;;;;5074099;28;20040;-60
2023/07/09 12:05:50;;;;;;;9.50;6.43;;;36.80;96.20;;;;;;5073447;28;20040;-60
2023/07/09 12:08:16;;;;;;;9.63;7.05;;;36.80;96.80;;;;;;5072727;28;20047;-68
2023/07/09 12:10:43;;;;;;;7.93;6.25;;;36.80;96.60;;;;;;5073520;28;20457;-66
2023/07/09 12:13:11;;;;;;;7.82;6.50;;;36.80;96.10;;;;;;5073599;28;20033;-67
2023/07/09 12:15:38;;;;;;;;;;;36.60;96.60;;;;;;5074017;28;20055;-68
2023/07/09 12:18:11;;;;;;;10.07;6.47;;;36.60;97.10;;;;;;5073605;28;20324;-67
2023/07/09 12:20:37;;;;;;;8.43;6.07;;;36.70;96.30;;;;;;5073717;28;20414;-67
2023/07/09 12:23:24;;;;;;;10.63;6.38;;;36.70;96.50;;;;;;5071874;28;20036;-68
2023/07/09 12:25:51;;;;;;;6.65;5.82;;;36.50;96.40;;;;;;5057407;28;20434;-66
2023/07/09 12:28:19;;;;;;;8.05;6.80;;;36.40;96.50;;;;;;5056451;28;20035;-68
2023/07/09 12:30:50;;;;;;;6.85;6.00;;;36.40;96.60;;;;;;5049577;28;20068;-67
2023/07/09 12:33:21;;;;;;;8.55;5.80;;;36.40;96.40;;;;;;5062219;28;20037;-68
2023/07/09 12:35:52;;;;;;;9.20;5.38;;;36.10;96.40;;;;;;5068664;28;20039;-68
2023/07/09 12:38:20;;;;;;;6.10;5.50;;;35.90;96.20;;;;;;5060117;28;20033;-68
2023/07/09 12:40:50;;;;;;;7.45;4.97;;;35.50;95.80;;;;;;5070977;28;20079;-67
2023/07/09 12:43:25;;;;;;;6.28;5.47;;;35.30;95.70;;;;;;5072839;28;20102;-67
2023/07/09 12:45:52;;;;;;;6.05;5.45;;;35.10;96.10;;;;;;5072998;28;20058;-68
2023/07/09 12:48:26;;;;;;;8.50;5.72;;;35.00;95.70;;;;;;5087345;28;20036;-67
2023/07/09 12:50:56;;;;;;;8.45;5.68;;;34.80;95.60;;;;;;5072947;28;20395;-67